AMQ635 LTAI-EPWR
Flight info
| Callsign | AMQ635 |
|---|---|
| Flight time | 2h 36m |
| Altitude | 34000 |
| Route | EKNUD1F/36R EKNUD UQ26 BKZ DCT IBLAX DCT KARIL DCT KEKED DCT MEBAN DCT SUDOL L619 LUMVE |
| Aircraft | A320/M-SDE3FGHIRWY/LB1 |
Departure
| Time | 2026-05-07 16:47 |
|---|---|
| Airport | Antalya International Airport (LTAI) |
Arrival
| Time | 2026-05-07 19:23 |
|---|---|
| Airport | Copernicus Wrocław Airport (EPWR) |
| Time | Latitude | Longitude | Altitude | Speed | Heading |
|---|---|---|---|---|---|
| 2026-05-07 16:16 | 36.89703 | 30.80081 | 182 ft | 0 kts | 29° |
| 2026-05-07 16:27 | 36.89702 | 30.80081 | 182 ft | 0 kts | 29° |
| 2026-05-07 16:34 | 36.89693 | 30.80074 | 182 ft | 3 kts | 34° |
| 2026-05-07 16:34 | 36.89677 | 30.80059 | 182 ft | 3 kts | 46° |
| 2026-05-07 16:34 | 36.89663 | 30.80040 | 182 ft | 3 kts | 48° |
| 2026-05-07 16:34 | 36.89649 | 30.80024 | 182 ft | 3 kts | 30° |
| 2026-05-07 16:35 | 36.89631 | 30.80011 | 182 ft | 3 kts | 30° |
| 2026-05-07 16:35 | 36.89618 | 30.80001 | 182 ft | 1 kts | 32° |
| 2026-05-07 16:35 | 36.89617 | 30.80000 | 182 ft | 0 kts | 32° |
| 2026-05-07 16:37 | 36.89617 | 30.80002 | 182 ft | 1 kts | 39° |
| 2026-05-07 16:37 | 36.89615 | 30.80053 | 182 ft | 10 kts | 96° |
| 2026-05-07 16:38 | 36.89601 | 30.80201 | 181 ft | 20 kts | 96° |
| 2026-05-07 16:38 | 36.89585 | 30.80376 | 181 ft | 21 kts | 97° |
| 2026-05-07 16:38 | 36.89570 | 30.80547 | 181 ft | 20 kts | 97° |
| 2026-05-07 16:38 | 36.89525 | 30.80675 | 181 ft | 17 kts | 164° |
| 2026-05-07 16:39 | 36.89408 | 30.80664 | 180 ft | 17 kts | 189° |
| 2026-05-07 16:39 | 36.89322 | 30.80653 | 180 ft | 6 kts | 185° |
| 2026-05-07 16:39 | 36.89320 | 30.80653 | 180 ft | 0 kts | 185° |
| 2026-05-07 16:39 | 36.89262 | 30.80644 | 179 ft | 19 kts | 186° |
| 2026-05-07 16:40 | 36.89121 | 30.80627 | 179 ft | 21 kts | 184° |
| 2026-05-07 16:40 | 36.88972 | 30.80604 | 178 ft | 22 kts | 186° |
| 2026-05-07 16:40 | 36.88816 | 30.80583 | 177 ft | 23 kts | 185° |
| 2026-05-07 16:40 | 36.88651 | 30.80559 | 177 ft | 24 kts | 186° |
| 2026-05-07 16:41 | 36.88505 | 30.80539 | 176 ft | 19 kts | 187° |
| 2026-05-07 16:41 | 36.88375 | 30.80521 | 175 ft | 19 kts | 186° |
| 2026-05-07 16:41 | 36.88256 | 30.80505 | 174 ft | 12 kts | 186° |
| 2026-05-07 16:41 | 36.88199 | 30.80497 | 173 ft | 4 kts | 186° |
| 2026-05-07 16:42 | 36.88181 | 30.80495 | 173 ft | 1 kts | 184° |
| 2026-05-07 16:42 | 36.88154 | 30.80496 | 173 ft | 5 kts | 173° |
| 2026-05-07 16:42 | 36.88132 | 30.80511 | 173 ft | 0 kts | 136° |
| 2026-05-07 16:43 | 36.88126 | 30.80519 | 173 ft | 2 kts | 130° |
| 2026-05-07 16:43 | 36.88113 | 30.80562 | 172 ft | 7 kts | 99° |
| 2026-05-07 16:43 | 36.88111 | 30.80581 | 172 ft | 0 kts | 97° |
| 2026-05-07 16:44 | 36.88110 | 30.80594 | 172 ft | 8 kts | 97° |
| 2026-05-07 16:45 | 36.88125 | 30.80706 | 172 ft | 12 kts | 44° |
| 2026-05-07 16:45 | 36.88186 | 30.80733 | 173 ft | 0 kts | 7° |
| 2026-05-07 16:46 | 36.88191 | 30.80733 | 173 ft | 7 kts | 7° |
| 2026-05-07 16:46 | 36.88453 | 30.80770 | 176 ft | 73 kts | 6° |
| 2026-05-07 16:46 | 36.89167 | 30.80869 | 178 ft | 132 kts | 6° |
| 2026-05-07 16:47 | 36.90241 | 30.81015 | 239 ft | 172 kts | 7° |
| 2026-05-07 16:47 | 36.91415 | 30.81186 | 886 ft | 169 kts | 16° |
| 2026-05-07 16:47 | 36.92519 | 30.81676 | 1520 ft | 169 kts | 26° |
| 2026-05-07 16:47 | 36.93615 | 30.82244 | 2080 ft | 176 kts | 24° |
| 2026-05-07 16:48 | 36.94816 | 30.82859 | 2322 ft | 198 kts | 24° |
| 2026-05-07 16:48 | 36.96164 | 30.83544 | 2573 ft | 220 kts | 22° |
| 2026-05-07 16:48 | 36.97608 | 30.84272 | 3180 ft | 224 kts | 22° |
| 2026-05-07 16:48 | 36.99047 | 30.84993 | 3961 ft | 222 kts | 21° |
| 2026-05-07 16:49 | 37.00547 | 30.85731 | 4380 ft | 243 kts | 20° |
| 2026-05-07 16:49 | 37.02194 | 30.86532 | 4827 ft | 261 kts | 20° |
| 2026-05-07 16:49 | 37.03904 | 30.87362 | 5591 ft | 266 kts | 20° |
| 2026-05-07 16:49 | 37.05635 | 30.88199 | 6444 ft | 267 kts | 19° |
| 2026-05-07 16:50 | 37.07443 | 30.88730 | 7226 ft | 269 kts | 3° |
| 2026-05-07 16:50 | 37.09312 | 30.88552 | 7973 ft | 271 kts | 348° |
| 2026-05-07 16:50 | 37.11168 | 30.88079 | 8752 ft | 274 kts | 348° |
| 2026-05-07 16:50 | 37.13044 | 30.87605 | 9540 ft | 276 kts | 348° |
| 2026-05-07 16:51 | 37.14925 | 30.87131 | 9940 ft | 280 kts | 348° |
| 2026-05-07 16:51 | 37.16838 | 30.86651 | 10030 ft | 287 kts | 348° |
| 2026-05-07 16:51 | 37.18860 | 30.86140 | 10036 ft | 302 kts | 348° |
| 2026-05-07 16:51 | 37.20971 | 30.85609 | 10041 ft | 317 kts | 348° |
| 2026-05-07 16:52 | 37.23172 | 30.85057 | 10042 ft | 327 kts | 348° |
| 2026-05-07 16:52 | 37.25438 | 30.84489 | 10045 ft | 329 kts | 348° |
| 2026-05-07 16:52 | 37.27706 | 30.83919 | 10052 ft | 334 kts | 348° |
| 2026-05-07 16:52 | 37.29987 | 30.83347 | 10053 ft | 338 kts | 348° |
| 2026-05-07 16:53 | 37.32276 | 30.82769 | 10051 ft | 332 kts | 348° |
| 2026-05-07 16:53 | 37.34572 | 30.82188 | 10062 ft | 336 kts | 348° |
| 2026-05-07 16:53 | 37.36870 | 30.81606 | 10061 ft | 332 kts | 348° |
| 2026-05-07 16:53 | 37.39153 | 30.81026 | 10060 ft | 331 kts | 348° |
| 2026-05-07 16:54 | 37.41432 | 30.80454 | 10058 ft | 333 kts | 350° |
| 2026-05-07 16:54 | 37.43733 | 30.80233 | 10072 ft | 338 kts | 0° |
| 2026-05-07 16:54 | 37.46068 | 30.80315 | 10069 ft | 332 kts | 1° |
| 2026-05-07 16:54 | 37.48393 | 30.80394 | 10067 ft | 329 kts | 0° |
| 2026-05-07 16:55 | 37.50730 | 30.80472 | 10230 ft | 340 kts | 1° |
| 2026-05-07 16:55 | 37.53120 | 30.80569 | 10808 ft | 347 kts | 1° |
| 2026-05-07 16:55 | 37.55543 | 30.80681 | 11501 ft | 350 kts | 1° |
| 2026-05-07 16:55 | 37.57990 | 30.80797 | 12194 ft | 353 kts | 1° |
| 2026-05-07 16:56 | 37.60454 | 30.80914 | 12891 ft | 355 kts | 1° |
| 2026-05-07 16:56 | 37.62938 | 30.81028 | 13534 ft | 359 kts | 1° |
| 2026-05-07 16:56 | 37.67976 | 30.81257 | 14782 ft | 365 kts | 1° |
| 2026-05-07 16:57 | 37.70524 | 30.81373 | 15376 ft | 368 kts | 1° |
| 2026-05-07 16:57 | 37.73087 | 30.81489 | 15970 ft | 370 kts | 0° |
| 2026-05-07 16:57 | 37.75678 | 30.81607 | 16556 ft | 373 kts | 0° |
| 2026-05-07 16:57 | 37.78285 | 30.81724 | 17157 ft | 376 kts | 360° |
| 2026-05-07 16:58 | 37.80909 | 30.81766 | 17744 ft | 378 kts | 358° |
| 2026-05-07 16:58 | 37.83551 | 30.81724 | 18328 ft | 381 kts | 356° |
| 2026-05-07 16:58 | 37.86217 | 30.81641 | 18870 ft | 384 kts | 356° |
| 2026-05-07 16:58 | 37.88893 | 30.81547 | 19412 ft | 386 kts | 356° |
| 2026-05-07 16:59 | 37.91581 | 30.81462 | 19944 ft | 388 kts | 356° |
| 2026-05-07 16:59 | 37.94288 | 30.81391 | 20463 ft | 390 kts | 356° |
| 2026-05-07 16:59 | 37.97003 | 30.81330 | 20972 ft | 391 kts | 356° |
| 2026-05-07 16:59 | 37.99696 | 30.81278 | 21458 ft | 393 kts | 357° |
| 2026-05-07 17:00 | 38.02433 | 30.81229 | 21929 ft | 395 kts | 357° |
| 2026-05-07 17:00 | 38.05187 | 30.81178 | 22402 ft | 396 kts | 356° |
| 2026-05-07 17:00 | 38.07945 | 30.81124 | 22879 ft | 397 kts | 356° |
| 2026-05-07 17:00 | 38.10714 | 30.81068 | 23340 ft | 399 kts | 356° |
| 2026-05-07 17:01 | 38.13497 | 30.80927 | 23805 ft | 399 kts | 352° |
| 2026-05-07 17:01 | 38.16252 | 30.80474 | 24175 ft | 401 kts | 351° |
| 2026-05-07 17:01 | 38.19019 | 30.80014 | 24533 ft | 402 kts | 351° |
| 2026-05-07 17:01 | 38.21806 | 30.79554 | 24889 ft | 404 kts | 351° |
| 2026-05-07 17:02 | 38.24604 | 30.79094 | 25230 ft | 406 kts | 351° |
| 2026-05-07 17:02 | 38.27410 | 30.78634 | 25575 ft | 407 kts | 351° |
| 2026-05-07 17:02 | 38.30225 | 30.78173 | 25907 ft | 409 kts | 350° |
| 2026-05-07 17:02 | 38.33051 | 30.77711 | 26253 ft | 410 kts | 350° |
| 2026-05-07 17:03 | 38.35886 | 30.77242 | 26567 ft | 412 kts | 350° |
| 2026-05-07 17:03 | 38.38738 | 30.76765 | 26889 ft | 414 kts | 350° |
| 2026-05-07 17:03 | 38.41591 | 30.76287 | 27185 ft | 415 kts | 350° |
| 2026-05-07 17:03 | 38.44464 | 30.75810 | 27473 ft | 416 kts | 350° |
| 2026-05-07 17:04 | 38.47343 | 30.75335 | 27752 ft | 418 kts | 350° |
| 2026-05-07 17:04 | 38.50234 | 30.74858 | 28022 ft | 419 kts | 350° |
| 2026-05-07 17:04 | 38.53119 | 30.74382 | 28477 ft | 416 kts | 350° |
| 2026-05-07 17:04 | 38.55978 | 30.73910 | 28996 ft | 412 kts | 350° |
| 2026-05-07 17:05 | 38.58806 | 30.73443 | 29512 ft | 408 kts | 350° |
| 2026-05-07 17:05 | 38.61612 | 30.72979 | 30007 ft | 406 kts | 350° |
| 2026-05-07 17:05 | 38.64404 | 30.72514 | 30508 ft | 401 kts | 349° |
| 2026-05-07 17:05 | 38.67107 | 30.72064 | 31119 ft | 394 kts | 349° |
| 2026-05-07 17:06 | 38.69813 | 30.71611 | 31571 ft | 391 kts | 349° |
| 2026-05-07 17:06 | 38.72507 | 30.71156 | 31961 ft | 389 kts | 349° |
| 2026-05-07 17:06 | 38.75185 | 30.70703 | 32338 ft | 388 kts | 349° |
| 2026-05-07 17:06 | 38.77860 | 30.70250 | 32724 ft | 386 kts | 349° |
| 2026-05-07 17:07 | 38.80523 | 30.69805 | 33115 ft | 385 kts | 349° |
| 2026-05-07 17:07 | 38.83170 | 30.69339 | 33455 ft | 383 kts | 346° |
| 2026-05-07 17:07 | 38.85730 | 30.68476 | 33725 ft | 380 kts | 338° |
| 2026-05-07 17:07 | 38.88154 | 30.67120 | 33919 ft | 381 kts | 331° |
| 2026-05-07 17:08 | 38.90530 | 30.65566 | 34077 ft | 384 kts | 331° |
| 2026-05-07 17:08 | 38.92928 | 30.64006 | 34173 ft | 389 kts | 331° |
| 2026-05-07 17:08 | 38.97796 | 30.60840 | 34203 ft | 399 kts | 331° |
| 2026-05-07 17:09 | 39.02760 | 30.57598 | 34184 ft | 400 kts | 331° |
| 2026-05-07 17:09 | 39.07728 | 30.54360 | 34185 ft | 400 kts | 331° |
| 2026-05-07 17:10 | 39.11856 | 30.51658 | 34186 ft | 400 kts | 331° |
| 2026-05-07 17:10 | 39.16827 | 30.48405 | 34179 ft | 401 kts | 331° |
| 2026-05-07 17:11 | 39.21801 | 30.45144 | 34187 ft | 401 kts | 331° |
| 2026-05-07 17:11 | 39.26769 | 30.41873 | 34188 ft | 401 kts | 331° |
| 2026-05-07 17:12 | 39.31750 | 30.38598 | 34170 ft | 402 kts | 331° |
| 2026-05-07 17:12 | 39.36735 | 30.35312 | 34167 ft | 403 kts | 331° |
| 2026-05-07 17:13 | 39.41730 | 30.32019 | 34165 ft | 403 kts | 331° |
| 2026-05-07 17:13 | 39.46733 | 30.28705 | 34175 ft | 404 kts | 331° |
| 2026-05-07 17:14 | 39.51769 | 30.25464 | 34169 ft | 405 kts | 334° |
| 2026-05-07 17:14 | 39.56980 | 30.22651 | 34169 ft | 406 kts | 336° |
| 2026-05-07 17:15 | 39.62246 | 30.19986 | 34171 ft | 406 kts | 336° |
| 2026-05-07 17:15 | 39.67485 | 30.17254 | 34171 ft | 406 kts | 335° |
| 2026-05-07 17:16 | 39.72714 | 30.14454 | 34176 ft | 406 kts | 335° |
| 2026-05-07 17:16 | 39.77926 | 30.11648 | 34174 ft | 406 kts | 335° |
| 2026-05-07 17:17 | 39.83119 | 30.08849 | 34152 ft | 407 kts | 335° |
| 2026-05-07 17:17 | 39.88390 | 30.06014 | 34145 ft | 408 kts | 335° |
| 2026-05-07 17:18 | 39.93608 | 30.03212 | 34148 ft | 408 kts | 335° |
| 2026-05-07 17:18 | 39.98851 | 30.00386 | 34147 ft | 408 kts | 335° |
| 2026-05-07 17:19 | 40.04099 | 29.97548 | 34146 ft | 408 kts | 335° |
| 2026-05-07 17:19 | 40.09343 | 29.94704 | 34137 ft | 408 kts | 335° |
| 2026-05-07 17:20 | 40.14586 | 29.91852 | 34126 ft | 408 kts | 335° |
| 2026-05-07 17:20 | 40.19838 | 29.88999 | 34132 ft | 408 kts | 335° |
| 2026-05-07 17:21 | 40.25084 | 29.86146 | 34124 ft | 408 kts | 335° |
| 2026-05-07 17:21 | 40.30338 | 29.83294 | 34119 ft | 408 kts | 335° |
| 2026-05-07 17:22 | 40.35545 | 29.80449 | 34097 ft | 409 kts | 335° |
| 2026-05-07 17:22 | 40.40806 | 29.77572 | 34107 ft | 410 kts | 335° |
| 2026-05-07 17:23 | 40.46076 | 29.74686 | 34105 ft | 410 kts | 335° |
| 2026-05-07 17:23 | 40.51338 | 29.71798 | 34106 ft | 410 kts | 335° |
| 2026-05-07 17:24 | 40.56608 | 29.68901 | 34104 ft | 410 kts | 335° |
| 2026-05-07 17:24 | 40.61876 | 29.65994 | 34116 ft | 410 kts | 335° |
| 2026-05-07 17:25 | 40.66974 | 29.62686 | 34113 ft | 408 kts | 324° |
| 2026-05-07 17:25 | 40.71433 | 29.58069 | 34116 ft | 407 kts | 321° |
| 2026-05-07 17:26 | 40.75861 | 29.53409 | 34102 ft | 408 kts | 321° |
| 2026-05-07 17:26 | 40.80267 | 29.48762 | 34099 ft | 408 kts | 321° |
| 2026-05-07 17:27 | 40.84711 | 29.44078 | 34094 ft | 409 kts | 321° |
| 2026-05-07 17:27 | 40.89155 | 29.39372 | 34098 ft | 409 kts | 321° |
| 2026-05-07 17:28 | 40.93601 | 29.34652 | 34101 ft | 410 kts | 321° |
| 2026-05-07 17:28 | 40.98047 | 29.29929 | 34103 ft | 410 kts | 320° |
| 2026-05-07 17:29 | 41.02491 | 29.25192 | 34107 ft | 410 kts | 320° |
| 2026-05-07 17:29 | 41.06939 | 29.20453 | 34099 ft | 411 kts | 320° |
| 2026-05-07 17:30 | 41.11390 | 29.15700 | 34101 ft | 411 kts | 320° |
| 2026-05-07 17:30 | 41.15862 | 29.11048 | 34093 ft | 412 kts | 322° |
| 2026-05-07 17:31 | 41.20475 | 29.06544 | 34093 ft | 412 kts | 323° |
| 2026-05-07 17:31 | 41.25106 | 29.02047 | 34091 ft | 412 kts | 322° |
| 2026-05-07 17:32 | 41.29716 | 28.97503 | 34091 ft | 413 kts | 322° |
| 2026-05-07 17:32 | 41.34318 | 28.92934 | 34094 ft | 413 kts | 322° |
| 2026-05-07 17:33 | 41.38920 | 28.88359 | 34102 ft | 413 kts | 322° |
| 2026-05-07 17:33 | 41.43517 | 28.83773 | 34107 ft | 413 kts | 322° |
| 2026-05-07 17:34 | 41.48120 | 28.79182 | 34102 ft | 413 kts | 322° |
| 2026-05-07 17:34 | 41.52718 | 28.74586 | 34103 ft | 413 kts | 322° |
| 2026-05-07 17:35 | 41.57293 | 28.70005 | 34106 ft | 413 kts | 322° |
| 2026-05-07 17:35 | 41.61898 | 28.65399 | 34102 ft | 414 kts | 321° |
| 2026-05-07 17:36 | 41.66503 | 28.60775 | 34121 ft | 414 kts | 321° |
| 2026-05-07 17:36 | 41.71109 | 28.56136 | 34119 ft | 414 kts | 321° |
| 2026-05-07 17:37 | 41.75713 | 28.51492 | 34118 ft | 414 kts | 321° |
| 2026-05-07 17:37 | 41.80314 | 28.46840 | 34111 ft | 414 kts | 321° |
| 2026-05-07 17:38 | 41.84921 | 28.42177 | 34106 ft | 415 kts | 321° |
| 2026-05-07 17:38 | 41.89528 | 28.37506 | 34109 ft | 415 kts | 321° |
| 2026-05-07 17:39 | 41.94142 | 28.32826 | 34123 ft | 416 kts | 321° |
| 2026-05-07 17:39 | 41.98719 | 28.28166 | 34117 ft | 416 kts | 322° |
| 2026-05-07 17:40 | 42.03487 | 28.23737 | 34109 ft | 417 kts | 325° |
| 2026-05-07 17:40 | 42.08374 | 28.19541 | 34112 ft | 417 kts | 326° |
| 2026-05-07 17:41 | 42.13257 | 28.15300 | 34113 ft | 417 kts | 325° |
| 2026-05-07 17:41 | 42.18096 | 28.10981 | 34103 ft | 417 kts | 324° |
| 2026-05-07 17:42 | 42.22924 | 28.06621 | 34111 ft | 418 kts | 324° |
| 2026-05-07 17:42 | 42.27764 | 28.02259 | 34108 ft | 418 kts | 324° |
| 2026-05-07 17:43 | 42.32601 | 27.97913 | 34113 ft | 418 kts | 324° |
| 2026-05-07 17:43 | 42.37447 | 27.93552 | 34110 ft | 418 kts | 324° |
| 2026-05-07 17:44 | 42.42291 | 27.89185 | 34098 ft | 419 kts | 324° |
| 2026-05-07 17:44 | 42.47142 | 27.84800 | 34101 ft | 419 kts | 324° |
| 2026-05-07 17:45 | 42.51983 | 27.80405 | 34101 ft | 419 kts | 324° |
| 2026-05-07 17:45 | 42.56803 | 27.76024 | 34104 ft | 419 kts | 324° |
| 2026-05-07 17:46 | 42.61652 | 27.71623 | 34102 ft | 420 kts | 324° |
| 2026-05-07 17:46 | 42.66507 | 27.67207 | 34097 ft | 420 kts | 324° |
| 2026-05-07 17:47 | 42.71360 | 27.62776 | 34106 ft | 420 kts | 324° |
| 2026-05-07 17:47 | 42.76209 | 27.58339 | 34106 ft | 420 kts | 324° |
| 2026-05-07 17:48 | 42.81054 | 27.53898 | 34097 ft | 420 kts | 324° |
| 2026-05-07 17:48 | 42.85873 | 27.49465 | 34090 ft | 421 kts | 324° |
| 2026-05-07 17:49 | 42.90732 | 27.44993 | 34083 ft | 421 kts | 324° |
| 2026-05-07 17:49 | 42.95595 | 27.40516 | 34084 ft | 421 kts | 324° |
| 2026-05-07 17:50 | 43.00443 | 27.36036 | 34078 ft | 421 kts | 323° |
| 2026-05-07 17:50 | 43.05275 | 27.31553 | 34075 ft | 422 kts | 323° |
| 2026-05-07 17:51 | 43.10147 | 27.27038 | 34069 ft | 423 kts | 323° |
| 2026-05-07 17:51 | 43.15026 | 27.22514 | 34072 ft | 423 kts | 323° |
| 2026-05-07 17:52 | 43.19903 | 27.17983 | 34062 ft | 424 kts | 323° |
| 2026-05-07 17:52 | 43.24783 | 27.13426 | 34061 ft | 425 kts | 323° |
| 2026-05-07 17:53 | 43.29676 | 27.08846 | 34053 ft | 426 kts | 323° |
| 2026-05-07 17:53 | 43.34585 | 27.04246 | 34051 ft | 427 kts | 323° |
| 2026-05-07 17:54 | 43.39466 | 26.99669 | 34052 ft | 427 kts | 323° |
| 2026-05-07 17:54 | 43.44386 | 26.95044 | 34040 ft | 429 kts | 322° |
| 2026-05-07 17:55 | 43.49326 | 26.90388 | 34028 ft | 431 kts | 322° |
| 2026-05-07 17:55 | 43.54284 | 26.85717 | 34034 ft | 432 kts | 322° |
| 2026-05-07 17:56 | 43.59233 | 26.81028 | 34030 ft | 432 kts | 322° |
| 2026-05-07 17:56 | 43.64198 | 26.76318 | 34035 ft | 433 kts | 322° |
| 2026-05-07 17:57 | 43.68327 | 26.72401 | 34019 ft | 434 kts | 322° |
| 2026-05-07 17:57 | 43.74154 | 26.66860 | 34021 ft | 435 kts | 322° |
| 2026-05-07 17:58 | 43.79136 | 26.62104 | 34023 ft | 435 kts | 322° |
| 2026-05-07 17:58 | 43.84085 | 26.57370 | 34017 ft | 436 kts | 322° |
| 2026-05-07 17:59 | 43.89119 | 26.52549 | 34028 ft | 441 kts | 322° |
| 2026-05-07 17:59 | 43.94164 | 26.47711 | 34038 ft | 440 kts | 322° |
| 2026-05-07 18:00 | 43.99196 | 26.42871 | 34041 ft | 440 kts | 322° |
| 2026-05-07 18:00 | 44.04228 | 26.38024 | 34053 ft | 439 kts | 322° |
| 2026-05-07 18:01 | 44.09241 | 26.33192 | 34052 ft | 438 kts | 322° |
| 2026-05-07 18:01 | 44.14240 | 26.28355 | 34048 ft | 437 kts | 322° |
| 2026-05-07 18:02 | 44.21698 | 26.21104 | 34042 ft | 436 kts | 322° |
| 2026-05-07 18:03 | 44.25875 | 26.17048 | 34035 ft | 437 kts | 322° |
| 2026-05-07 18:03 | 44.30826 | 26.12229 | 34033 ft | 437 kts | 322° |
| 2026-05-07 18:04 | 44.35817 | 26.07359 | 34030 ft | 437 kts | 322° |
| 2026-05-07 18:04 | 44.40797 | 26.02472 | 34029 ft | 437 kts | 321° |
| 2026-05-07 18:05 | 44.45762 | 25.97602 | 34026 ft | 437 kts | 322° |
| 2026-05-07 18:05 | 44.50747 | 25.92708 | 34013 ft | 438 kts | 322° |
| 2026-05-07 18:06 | 44.55735 | 25.87797 | 34016 ft | 439 kts | 321° |
| 2026-05-07 18:06 | 44.60727 | 25.82875 | 34032 ft | 438 kts | 321° |
| 2026-05-07 18:07 | 44.65703 | 25.77957 | 34049 ft | 437 kts | 321° |
| 2026-05-07 18:07 | 44.70633 | 25.73061 | 34028 ft | 437 kts | 321° |
| 2026-05-07 18:08 | 44.75612 | 25.68112 | 34024 ft | 438 kts | 321° |
| 2026-05-07 18:08 | 44.80590 | 25.63158 | 34022 ft | 439 kts | 321° |
| 2026-05-07 18:09 | 44.85580 | 25.58186 | 34036 ft | 439 kts | 321° |
| 2026-05-07 18:09 | 44.90567 | 25.53198 | 34038 ft | 440 kts | 321° |
| 2026-05-07 18:10 | 44.95574 | 25.48176 | 34026 ft | 442 kts | 321° |
| 2026-05-07 18:10 | 45.00589 | 25.43135 | 34030 ft | 443 kts | 321° |
| 2026-05-07 18:11 | 45.05615 | 25.38075 | 34041 ft | 444 kts | 321° |
| 2026-05-07 18:11 | 45.10642 | 25.33010 | 34041 ft | 444 kts | 321° |
| 2026-05-07 18:12 | 45.15688 | 25.27915 | 34040 ft | 445 kts | 321° |
| 2026-05-07 18:12 | 45.20730 | 25.22799 | 34045 ft | 446 kts | 321° |
| 2026-05-07 18:13 | 45.25757 | 25.17702 | 34047 ft | 447 kts | 321° |
| 2026-05-07 18:13 | 45.30820 | 25.12554 | 34052 ft | 448 kts | 321° |
| 2026-05-07 18:14 | 45.35889 | 25.07379 | 34050 ft | 449 kts | 320° |
| 2026-05-07 18:14 | 45.40969 | 25.02180 | 34045 ft | 450 kts | 320° |
| 2026-05-07 18:15 | 45.46056 | 24.96966 | 34048 ft | 450 kts | 320° |
| 2026-05-07 18:15 | 45.51144 | 24.91746 | 34054 ft | 451 kts | 320° |
| 2026-05-07 18:16 | 45.56227 | 24.86523 | 34048 ft | 450 kts | 320° |
| 2026-05-07 18:16 | 45.61308 | 24.81283 | 34047 ft | 451 kts | 320° |
| 2026-05-07 18:17 | 45.66386 | 24.76028 | 34035 ft | 451 kts | 320° |
| 2026-05-07 18:17 | 45.71463 | 24.70768 | 34037 ft | 451 kts | 319° |
| 2026-05-07 18:18 | 45.76540 | 24.65497 | 34049 ft | 450 kts | 319° |
| 2026-05-07 18:18 | 45.81573 | 24.60258 | 34039 ft | 450 kts | 319° |
| 2026-05-07 18:19 | 45.86629 | 24.54981 | 34033 ft | 449 kts | 319° |
| 2026-05-07 18:19 | 45.91677 | 24.49702 | 34030 ft | 449 kts | 319° |
| 2026-05-07 18:20 | 45.96730 | 24.44408 | 34030 ft | 449 kts | 319° |
| 2026-05-07 18:20 | 46.01775 | 24.39101 | 34028 ft | 449 kts | 319° |
| 2026-05-07 18:21 | 46.06817 | 24.33784 | 34022 ft | 449 kts | 319° |
| 2026-05-07 18:21 | 46.11857 | 24.28462 | 34017 ft | 449 kts | 319° |
| 2026-05-07 18:22 | 46.16902 | 24.23133 | 34014 ft | 449 kts | 319° |
| 2026-05-07 18:22 | 46.21935 | 24.17787 | 34013 ft | 449 kts | 319° |
| 2026-05-07 18:23 | 46.26970 | 24.12429 | 34011 ft | 449 kts | 319° |
| 2026-05-07 18:23 | 46.31999 | 24.07079 | 34010 ft | 449 kts | 319° |
| 2026-05-07 18:24 | 46.36993 | 24.01753 | 34008 ft | 449 kts | 318° |
| 2026-05-07 18:24 | 46.42017 | 23.96369 | 34026 ft | 449 kts | 318° |
| 2026-05-07 18:25 | 46.47045 | 23.90983 | 34010 ft | 450 kts | 318° |
| 2026-05-07 18:25 | 46.52080 | 23.85571 | 34010 ft | 450 kts | 318° |
| 2026-05-07 18:26 | 46.57106 | 23.80146 | 34015 ft | 450 kts | 318° |
| 2026-05-07 18:26 | 46.62130 | 23.74717 | 34026 ft | 450 kts | 318° |
| 2026-05-07 18:27 | 46.67150 | 23.69281 | 34038 ft | 451 kts | 318° |
| 2026-05-07 18:27 | 46.72184 | 23.63820 | 34008 ft | 451 kts | 318° |
| 2026-05-07 18:28 | 46.77218 | 23.58340 | 34017 ft | 452 kts | 318° |
| 2026-05-07 18:28 | 46.82256 | 23.52849 | 34017 ft | 452 kts | 318° |
| 2026-05-07 18:29 | 46.87294 | 23.47349 | 34041 ft | 452 kts | 318° |
| 2026-05-07 18:29 | 46.92294 | 23.41868 | 34028 ft | 452 kts | 317° |
| 2026-05-07 18:30 | 46.97327 | 23.36328 | 34024 ft | 453 kts | 317° |
| 2026-05-07 18:30 | 47.02357 | 23.30778 | 34026 ft | 453 kts | 317° |
| 2026-05-07 18:31 | 47.07386 | 23.25221 | 34015 ft | 453 kts | 317° |
| 2026-05-07 18:31 | 47.12415 | 23.19657 | 34035 ft | 453 kts | 318° |
| 2026-05-07 18:32 | 47.17448 | 23.14085 | 34032 ft | 453 kts | 318° |
| 2026-05-07 18:32 | 47.22476 | 23.08495 | 34027 ft | 453 kts | 318° |
| 2026-05-07 18:33 | 47.27497 | 23.02892 | 34021 ft | 453 kts | 318° |
| 2026-05-07 18:33 | 47.32520 | 22.97277 | 34041 ft | 453 kts | 319° |
| 2026-05-07 18:34 | 47.37515 | 22.91684 | 34025 ft | 453 kts | 319° |
| 2026-05-07 18:34 | 47.42541 | 22.86042 | 34022 ft | 454 kts | 319° |
| 2026-05-07 18:35 | 47.47562 | 22.80399 | 34021 ft | 454 kts | 319° |
| 2026-05-07 18:35 | 47.52581 | 22.74735 | 34021 ft | 454 kts | 319° |
| 2026-05-07 18:36 | 47.57595 | 22.69059 | 34032 ft | 454 kts | 319° |
| 2026-05-07 18:36 | 47.62618 | 22.63359 | 34024 ft | 455 kts | 319° |
| 2026-05-07 18:37 | 47.67632 | 22.57656 | 34021 ft | 455 kts | 319° |
| 2026-05-07 18:37 | 47.72659 | 22.51933 | 34022 ft | 455 kts | 318° |
| 2026-05-07 18:38 | 47.77677 | 22.46200 | 34003 ft | 455 kts | 318° |
| 2026-05-07 18:38 | 47.82220 | 22.39869 | 34009 ft | 450 kts | 309° |
| 2026-05-07 18:39 | 47.86558 | 22.33122 | 34001 ft | 451 kts | 309° |
| 2026-05-07 18:39 | 47.90907 | 22.26373 | 33996 ft | 452 kts | 309° |
| 2026-05-07 18:40 | 47.95255 | 22.19614 | 33995 ft | 452 kts | 309° |
| 2026-05-07 18:40 | 47.99604 | 22.12832 | 34016 ft | 452 kts | 309° |
| 2026-05-07 18:41 | 48.03947 | 22.06030 | 34006 ft | 453 kts | 309° |
| 2026-05-07 18:41 | 48.08287 | 21.99213 | 33999 ft | 453 kts | 309° |
| 2026-05-07 18:42 | 48.12626 | 21.92388 | 33990 ft | 453 kts | 309° |
| 2026-05-07 18:42 | 48.16961 | 21.85567 | 34005 ft | 453 kts | 309° |
| 2026-05-07 18:43 | 48.21299 | 21.78713 | 34000 ft | 453 kts | 308° |
| 2026-05-07 18:43 | 48.25634 | 21.71836 | 33990 ft | 454 kts | 308° |
| 2026-05-07 18:44 | 48.29908 | 21.64949 | 33986 ft | 453 kts | 307° |
| 2026-05-07 18:44 | 48.34107 | 21.57896 | 33984 ft | 453 kts | 306° |
| 2026-05-07 18:45 | 48.38286 | 21.50819 | 33981 ft | 453 kts | 307° |
| 2026-05-07 18:45 | 48.42488 | 21.43745 | 33981 ft | 453 kts | 307° |
| 2026-05-07 18:46 | 48.46690 | 21.36674 | 33982 ft | 453 kts | 307° |
| 2026-05-07 18:46 | 48.50885 | 21.29579 | 33981 ft | 453 kts | 307° |
| 2026-05-07 18:47 | 48.55082 | 21.22476 | 34034 ft | 453 kts | 306° |
| 2026-05-07 18:47 | 48.59287 | 21.15354 | 34026 ft | 453 kts | 306° |
| 2026-05-07 18:48 | 48.63475 | 21.08232 | 34017 ft | 453 kts | 306° |
| 2026-05-07 18:48 | 48.67618 | 21.01164 | 34006 ft | 452 kts | 306° |
| 2026-05-07 18:49 | 48.71788 | 20.94038 | 33997 ft | 452 kts | 306° |
| 2026-05-07 18:49 | 48.75956 | 20.86889 | 34006 ft | 453 kts | 305° |
| 2026-05-07 18:50 | 48.80133 | 20.79713 | 33968 ft | 454 kts | 305° |
| 2026-05-07 18:50 | 48.84306 | 20.72521 | 33965 ft | 454 kts | 305° |
| 2026-05-07 18:51 | 48.88475 | 20.65304 | 33968 ft | 454 kts | 304° |
| 2026-05-07 18:51 | 48.92640 | 20.58073 | 34030 ft | 455 kts | 304° |
| 2026-05-07 18:52 | 48.96807 | 20.50835 | 34024 ft | 455 kts | 304° |
| 2026-05-07 18:52 | 49.00967 | 20.43579 | 34025 ft | 455 kts | 304° |
| 2026-05-07 18:53 | 49.05122 | 20.36312 | 34027 ft | 455 kts | 304° |
| 2026-05-07 18:53 | 49.09260 | 20.29064 | 34019 ft | 456 kts | 304° |
| 2026-05-07 18:54 | 49.13415 | 20.21759 | 34056 ft | 455 kts | 304° |
| 2026-05-07 18:54 | 49.17556 | 20.14451 | 34042 ft | 455 kts | 304° |
| 2026-05-07 18:55 | 49.21691 | 20.07144 | 34019 ft | 454 kts | 304° |
| 2026-05-07 18:55 | 49.25154 | 20.01015 | 33995 ft | 455 kts | 304° |
| 2026-05-07 18:56 | 49.29293 | 19.93675 | 33996 ft | 455 kts | 304° |
| 2026-05-07 18:56 | 49.33501 | 19.86439 | 34004 ft | 456 kts | 306° |
| 2026-05-07 18:57 | 49.38005 | 19.79617 | 33989 ft | 458 kts | 309° |
| 2026-05-07 18:57 | 49.42625 | 19.72869 | 33993 ft | 458 kts | 309° |
| 2026-05-07 18:58 | 49.47184 | 19.66030 | 33988 ft | 457 kts | 308° |
| 2026-05-07 18:58 | 49.51679 | 19.59115 | 34015 ft | 458 kts | 307° |
| 2026-05-07 18:59 | 49.56178 | 19.52168 | 33986 ft | 459 kts | 307° |
| 2026-05-07 18:59 | 49.60708 | 19.45198 | 33973 ft | 460 kts | 307° |
| 2026-05-07 18:59 | 49.62971 | 19.41704 | 33775 ft | 461 kts | 307° |
| 2026-05-07 19:00 | 49.65237 | 19.38201 | 33491 ft | 462 kts | 307° |
| 2026-05-07 19:00 | 49.67508 | 19.34686 | 33216 ft | 463 kts | 307° |
| 2026-05-07 19:00 | 49.69786 | 19.31157 | 32947 ft | 464 kts | 308° |
| 2026-05-07 19:00 | 49.72069 | 19.27623 | 32697 ft | 465 kts | 308° |
| 2026-05-07 19:01 | 49.74364 | 19.24070 | 32431 ft | 468 kts | 308° |
| 2026-05-07 19:01 | 49.76668 | 19.20493 | 32157 ft | 470 kts | 308° |
| 2026-05-07 19:01 | 49.78965 | 19.16911 | 31906 ft | 471 kts | 308° |
| 2026-05-07 19:01 | 49.81253 | 19.13331 | 31652 ft | 472 kts | 308° |
| 2026-05-07 19:02 | 49.83568 | 19.09701 | 31393 ft | 473 kts | 309° |
| 2026-05-07 19:02 | 49.85884 | 19.06069 | 31138 ft | 475 kts | 309° |
| 2026-05-07 19:02 | 49.88213 | 19.02422 | 30883 ft | 476 kts | 309° |
| 2026-05-07 19:02 | 49.90548 | 18.98766 | 30633 ft | 477 kts | 309° |
| 2026-05-07 19:03 | 49.92882 | 18.95104 | 30419 ft | 478 kts | 309° |
| 2026-05-07 19:03 | 49.95231 | 18.91404 | 30173 ft | 482 kts | 309° |
| 2026-05-07 19:03 | 49.97589 | 18.87683 | 29911 ft | 485 kts | 309° |
| 2026-05-07 19:03 | 49.99961 | 18.83941 | 29624 ft | 486 kts | 309° |
| 2026-05-07 19:04 | 50.02331 | 18.80199 | 29339 ft | 486 kts | 309° |
| 2026-05-07 19:04 | 50.04700 | 18.76451 | 29064 ft | 487 kts | 309° |
| 2026-05-07 19:04 | 50.07078 | 18.72684 | 28789 ft | 489 kts | 309° |
| 2026-05-07 19:04 | 50.09468 | 18.68894 | 28505 ft | 489 kts | 309° |
| 2026-05-07 19:05 | 50.11845 | 18.65111 | 28066 ft | 487 kts | 309° |
| 2026-05-07 19:05 | 50.14216 | 18.61333 | 27079 ft | 487 kts | 309° |
| 2026-05-07 19:05 | 50.16565 | 18.57591 | 26323 ft | 481 kts | 309° |
| 2026-05-07 19:05 | 50.18893 | 18.53878 | 25573 ft | 475 kts | 309° |
| 2026-05-07 19:06 | 50.21188 | 18.50210 | 24852 ft | 470 kts | 309° |
| 2026-05-07 19:06 | 50.25716 | 18.42957 | 23406 ft | 462 kts | 309° |
| 2026-05-07 19:06 | 50.27945 | 18.39382 | 22666 ft | 457 kts | 309° |
| 2026-05-07 19:07 | 50.30111 | 18.35895 | 22032 ft | 450 kts | 309° |
| 2026-05-07 19:07 | 50.32305 | 18.32354 | 21395 ft | 444 kts | 310° |
| 2026-05-07 19:07 | 50.34437 | 18.28908 | 20790 ft | 438 kts | 310° |
| 2026-05-07 19:07 | 50.36519 | 18.25543 | 20229 ft | 432 kts | 310° |
| 2026-05-07 19:08 | 50.38627 | 18.22130 | 19654 ft | 427 kts | 310° |
| 2026-05-07 19:08 | 50.40656 | 18.18845 | 19135 ft | 422 kts | 311° |
| 2026-05-07 19:08 | 50.42688 | 18.15553 | 18614 ft | 417 kts | 311° |
| 2026-05-07 19:08 | 50.44692 | 18.12301 | 18088 ft | 412 kts | 311° |
| 2026-05-07 19:09 | 50.46675 | 18.09072 | 17567 ft | 407 kts | 311° |
| 2026-05-07 19:09 | 50.48626 | 18.05888 | 17070 ft | 402 kts | 311° |
| 2026-05-07 19:09 | 50.50549 | 18.02741 | 16564 ft | 397 kts | 311° |
| 2026-05-07 19:09 | 50.52454 | 17.99623 | 16051 ft | 393 kts | 311° |
| 2026-05-07 19:10 | 50.54340 | 17.96542 | 15531 ft | 389 kts | 311° |
| 2026-05-07 19:10 | 50.56215 | 17.93486 | 15025 ft | 386 kts | 311° |
| 2026-05-07 19:10 | 50.58070 | 17.90453 | 14479 ft | 384 kts | 311° |
| 2026-05-07 19:10 | 50.59911 | 17.87433 | 13930 ft | 381 kts | 311° |
| 2026-05-07 19:11 | 50.61739 | 17.84424 | 13339 ft | 378 kts | 311° |
| 2026-05-07 19:11 | 50.63551 | 17.81439 | 12789 ft | 374 kts | 311° |
| 2026-05-07 19:11 | 50.65315 | 17.78525 | 12243 ft | 370 kts | 311° |
| 2026-05-07 19:11 | 50.67083 | 17.75607 | 11677 ft | 366 kts | 311° |
| 2026-05-07 19:12 | 50.68833 | 17.72714 | 11114 ft | 363 kts | 311° |
| 2026-05-07 19:12 | 50.70558 | 17.69863 | 10762 ft | 353 kts | 311° |
| 2026-05-07 19:12 | 50.72218 | 17.67118 | 10638 ft | 338 kts | 311° |
| 2026-05-07 19:12 | 50.73805 | 17.64495 | 10519 ft | 323 kts | 311° |
| 2026-05-07 19:13 | 50.75323 | 17.61982 | 10401 ft | 311 kts | 311° |
| 2026-05-07 19:13 | 50.76785 | 17.59560 | 10303 ft | 298 kts | 311° |
| 2026-05-07 19:13 | 50.78188 | 17.57229 | 10189 ft | 289 kts | 310° |
| 2026-05-07 19:13 | 50.79565 | 17.54936 | 10026 ft | 287 kts | 310° |
| 2026-05-07 19:14 | 50.80940 | 17.52642 | 9745 ft | 288 kts | 310° |
| 2026-05-07 19:14 | 50.82318 | 17.50344 | 9336 ft | 287 kts | 310° |
| 2026-05-07 19:14 | 50.83686 | 17.48063 | 8952 ft | 284 kts | 311° |
| 2026-05-07 19:14 | 50.85044 | 17.45802 | 8590 ft | 282 kts | 311° |
| 2026-05-07 19:15 | 50.86370 | 17.43590 | 8234 ft | 279 kts | 311° |
| 2026-05-07 19:15 | 50.87695 | 17.41369 | 7872 ft | 277 kts | 311° |
| 2026-05-07 19:15 | 50.89010 | 17.39162 | 7526 ft | 274 kts | 311° |
| 2026-05-07 19:15 | 50.90315 | 17.36970 | 7174 ft | 272 kts | 311° |
| 2026-05-07 19:16 | 50.91606 | 17.34799 | 6989 ft | 270 kts | 311° |
| 2026-05-07 19:16 | 50.92896 | 17.32634 | 6989 ft | 270 kts | 311° |
| 2026-05-07 19:16 | 50.94195 | 17.30456 | 6671 ft | 274 kts | 311° |
| 2026-05-07 19:16 | 50.95506 | 17.28254 | 5934 ft | 274 kts | 311° |
| 2026-05-07 19:17 | 50.96794 | 17.26089 | 5425 ft | 264 kts | 311° |
| 2026-05-07 19:17 | 50.98018 | 17.24034 | 5078 ft | 249 kts | 311° |
| 2026-05-07 19:17 | 50.99179 | 17.22089 | 4749 ft | 236 kts | 311° |
| 2026-05-07 19:17 | 51.00272 | 17.20241 | 4467 ft | 223 kts | 309° |
| 2026-05-07 19:18 | 51.01088 | 17.18292 | 4328 ft | 205 kts | 296° |
| 2026-05-07 19:18 | 51.01718 | 17.16319 | 4135 ft | 196 kts | 295° |
| 2026-05-07 19:18 | 51.02311 | 17.14398 | 3860 ft | 191 kts | 295° |
| 2026-05-07 19:18 | 51.02890 | 17.12527 | 3602 ft | 186 kts | 296° |
| 2026-05-07 19:19 | 51.03450 | 17.10715 | 3351 ft | 180 kts | 296° |
| 2026-05-07 19:19 | 51.03996 | 17.08951 | 3111 ft | 176 kts | 296° |
| 2026-05-07 19:19 | 51.04530 | 17.07224 | 2871 ft | 173 kts | 297° |
| 2026-05-07 19:19 | 51.05056 | 17.05519 | 2639 ft | 171 kts | 298° |
| 2026-05-07 19:20 | 51.05576 | 17.03835 | 2413 ft | 168 kts | 298° |
| 2026-05-07 19:20 | 51.06079 | 17.02203 | 2180 ft | 161 kts | 299° |
| 2026-05-07 19:20 | 51.06555 | 17.00656 | 1983 ft | 148 kts | 298° |
| 2026-05-07 19:20 | 51.07005 | 16.99198 | 1776 ft | 145 kts | 300° |
| 2026-05-07 19:21 | 51.07444 | 16.97773 | 1567 ft | 143 kts | 299° |
| 2026-05-07 19:21 | 51.07874 | 16.96377 | 1379 ft | 142 kts | 298° |
| 2026-05-07 19:21 | 51.08313 | 16.94952 | 1167 ft | 141 kts | 298° |
| 2026-05-07 19:21 | 51.08741 | 16.93560 | 973 ft | 139 kts | 298° |
| 2026-05-07 19:22 | 51.09161 | 16.92192 | 786 ft | 137 kts | 298° |
| 2026-05-07 19:22 | 51.09573 | 16.90853 | 604 ft | 136 kts | 298° |
| 2026-05-07 19:22 | 51.09975 | 16.89506 | 432 ft | 135 kts | 297° |
| 2026-05-07 19:22 | 51.10363 | 16.88263 | 409 ft | 106 kts | 300° |
| 2026-05-07 19:23 | 51.10615 | 16.87461 | 412 ft | 50 kts | 297° |
| 2026-05-07 19:23 | 51.10709 | 16.87258 | 409 ft | 13 kts | 351° |
| 2026-05-07 19:23 | 51.10786 | 16.87295 | 409 ft | 8 kts | 20° |
| 2026-05-07 19:23 | 51.10838 | 16.87330 | 407 ft | 8 kts | 28° |
| 2026-05-07 19:24 | 51.10888 | 16.87374 | 405 ft | 8 kts | 30° |
| 2026-05-07 19:24 | 51.10919 | 16.87402 | 408 ft | 2 kts | 29° |
| 2026-05-07 19:24 | 51.10927 | 16.87410 | 404 ft | 1 kts | 29° |
| 2026-05-07 19:24 | 51.10942 | 16.87428 | 408 ft | 9 kts | 44° |
| 2026-05-07 19:25 | 51.10933 | 16.87530 | 406 ft | 11 kts | 115° |
| 2026-05-07 19:25 | 51.10896 | 16.87646 | 408 ft | 13 kts | 116° |
| 2026-05-07 19:25 | 51.10855 | 16.87781 | 408 ft | 13 kts | 115° |
| 2026-05-07 19:25 | 51.10832 | 16.87862 | 406 ft | 4 kts | 110° |
| 2026-05-07 19:26 | 51.10841 | 16.87892 | 408 ft | 1 kts | 58° |
| 2026-05-07 19:26 | 51.10844 | 16.87897 | 408 ft | 2 kts | 52° |
| 2026-05-07 19:26 | 51.10863 | 16.87907 | 408 ft | 3 kts | 11° |
| 2026-05-07 19:26 | 51.10880 | 16.87916 | 406 ft | 2 kts | 28° |
| 2026-05-07 19:27 | 51.10893 | 16.87926 | 406 ft | 0 kts | 25° |